sensor_id;sensor_type;location;lat;lon;timestamp;pressure;altitude;pressure_sealevel;temperature;humidity
8039;BME280;4062;49.844;8.120;2023-05-08T00:00:40;99646.97;;;15.34;58.96
8039;BME280;4062;49.844;8.120;2023-05-08T00:02:42;99643.44;;;15.34;58.95
8039;BME280;4062;49.844;8.120;2023-05-08T00:04:43;99637.25;;;15.33;59.02
8039;BME280;4062;49.844;8.120;2023-05-08T00:06:50;99644.31;;;15.34;58.69
8039;BME280;4062;49.844;8.120;2023-05-08T00:08:56;99638.97;;;15.34;59.02
8039;BME280;4062;49.844;8.120;2023-05-08T00:11:00;99635.47;;;15.34;58.90
8039;BME280;4062;49.844;8.120;2023-05-08T00:13:01;99634.56;;;15.33;58.81
8039;BME280;4062;49.844;8.120;2023-05-08T00:15:08;99635.47;;;15.34;59.01
8039;BME280;4062;49.844;8.120;2023-05-08T00:17:10;99640.78;;;15.34;58.86
8039;BME280;4062;49.844;8.120;2023-05-08T00:19:11;99636.38;;;15.32;59.02
8039;BME280;4062;49.844;8.120;2023-05-08T00:21:16;99635.47;;;15.34;58.96
8039;BME280;4062;49.844;8.120;2023-05-08T00:23:19;99634.56;;;15.33;58.79
8039;BME280;4062;49.844;8.120;2023-05-08T00:25:22;99634.56;;;15.33;58.95
8039;BME280;4062;49.844;8.120;2023-05-08T00:27:23;99635.47;;;15.34;58.78
8039;BME280;4062;49.844;8.120;2023-05-08T00:29:25;99644.31;;;15.34;59.10
8039;BME280;4062;49.844;8.120;2023-05-08T00:31:26;99644.38;;;15.32;58.88
8039;BME280;4062;49.844;8.120;2023-05-08T00:33:28;99639.91;;;15.33;58.98
8039;BME280;4062;49.844;8.120;2023-05-08T00:35:29;99651.44;;;15.34;58.92
8039;BME280;4062;49.844;8.120;2023-05-08T00:37:33;99647.88;;;15.33;58.83
8039;BME280;4062;49.844;8.120;2023-05-08T00:39:41;99641.63;;;15.34;59.01
8039;BME280;4062;49.844;8.120;2023-05-08T00:41:45;99643.44;;;15.34;58.78
8039;BME280;4062;49.844;8.120;2023-05-08T00:43:46;99644.31;;;15.34;58.79
8039;BME280;4062;49.844;8.120;2023-05-08T00:45:47;99650.56;;;15.33;58.95
8039;BME280;4062;49.844;8.120;2023-05-08T00:47:50;99650.50;;;15.35;58.83
8039;BME280;4062;49.844;8.120;2023-05-08T00:49:52;99646.13;;;15.34;58.81
8039;BME280;4062;49.844;8.120;2023-05-08T00:51:55;99647.88;;;15.33;58.88
8039;BME280;4062;49.844;8.120;2023-05-08T00:53:57;99649.69;;;15.32;58.89
8039;BME280;4062;49.844;8.120;2023-05-08T00:55:59;99647.88;;;15.33;58.96
8039;BME280;4062;49.844;8.120;2023-05-08T00:58:04;99651.44;;;15.34;58.93
8039;BME280;4062;49.844;8.120;2023-05-08T01:00:10;99654.09;;;15.34;58.77
8039;BME280;4062;49.844;8.120;2023-05-08T01:02:17;99655.88;;;15.33;58.90
8039;BME280;4062;49.844;8.120;2023-05-08T01:04:24;99659.44;;;15.34;59.01
8039;BME280;4062;49.844;8.120;2023-05-08T01:06:40;99654.09;;;15.34;58.85
8039;BME280;4062;49.844;8.120;2023-05-08T01:08:44;99657.63;;;15.34;58.84
8039;BME280;4062;49.844;8.120;2023-05-08T01:11:11;99654.09;;;15.34;58.93
8039;BME280;4062;49.844;8.120;2023-05-08T01:16:02;99659.44;;;15.34;58.95
8039;BME280;4062;49.844;8.120;2023-05-08T01:18:38;99651.44;;;15.34;59.03
8039;BME280;4062;49.844;8.120;2023-05-08T01:23:14;99650.56;;;15.33;58.93
8039;BME280;4062;49.844;8.120;2023-05-08T01:32:50;99655.88;;;15.33;58.89
8039;BME280;4062;49.844;8.120;2023-05-08T01:40:27;99651.44;;;15.34;58.84
8039;BME280;4062;49.844;8.120;2023-05-08T01:42:49;99648.78;;;15.34;58.83
8039;BME280;4062;49.844;8.120;2023-05-08T01:44:56;99656.75;;;15.34;58.90
8039;BME280;4062;49.844;8.120;2023-05-08T01:47:10;99658.53;;;15.33;58.77
8039;BME280;4062;49.844;8.120;2023-05-08T01:49:21;99653.22;;;15.33;59.01
8039;BME280;4062;49.844;8.120;2023-05-08T01:51:27;99662.94;;;15.34;58.87
8039;BME280;4062;49.844;8.120;2023-05-08T01:53:38;99656.75;;;15.34;58.99
8039;BME280;4062;49.844;8.120;2023-05-08T01:55:44;99670.06;;;15.34;58.88
8039;BME280;4062;49.844;8.120;2023-05-08T01:57:49;99670.94;;;15.34;58.88
8039;BME280;4062;49.844;8.120;2023-05-08T01:59:56;99660.34;;;15.32;58.96
8039;BME280;4062;49.844;8.120;2023-05-08T02:02:00;99663.88;;;15.33;58.90
8039;BME280;4062;49.844;8.120;2023-05-08T02:04:03;99662.09;;;15.34;58.86
8039;BME280;4062;49.844;8.120;2023-05-08T02:06:12;99662.09;;;15.34;58.85
8039;BME280;4062;49.844;8.120;2023-05-08T02:08:14;99667.41;;;15.34;58.89
8039;BME280;4062;49.844;8.120;2023-05-08T02:10:17;99664.75;;;15.34;58.78
8039;BME280;4062;49.844;8.120;2023-05-08T02:12:20;99672.75;;;15.34;59.01
8039;BME280;4062;49.844;8.120;2023-05-08T02:14:23;99659.44;;;15.34;58.95
8039;BME280;4062;49.844;8.120;2023-05-08T02:16:28;99668.34;;;15.32;58.89
8039;BME280;4062;49.844;8.120;2023-05-08T02:18:31;99672.75;;;15.34;58.85
8039;BME280;4062;49.844;8.120;2023-05-08T02:20:36;99669.19;;;15.33;58.84
8039;BME280;4062;49.844;8.120;2023-05-08T02:22:39;99670.94;;;15.34;58.95
8039;BME280;4062;49.844;8.120;2023-05-08T02:24:42;99673.66;;;15.32;58.95
8039;BME280;4062;49.844;8.120;2023-05-08T02:26:46;99684.25;;;15.34;58.89
8039;BME280;4062;49.844;8.120;2023-05-08T02:28:54;99674.50;;;15.33;58.97
8039;BME280;4062;49.844;8.120;2023-05-08T02:30:57;99678.06;;;15.34;58.92
8039;BME280;4062;49.844;8.120;2023-05-08T02:33:07;99678.97;;;15.32;58.79
8039;BME280;4062;49.844;8.120;2023-05-08T02:35:16;99686.03;;;15.34;58.78
8039;BME280;4062;49.844;8.120;2023-05-08T02:37:19;99683.38;;;15.34;58.83
8039;BME280;4062;49.844;8.120;2023-05-08T02:39:26;99685.16;;;15.33;58.84
8039;BME280;4062;49.844;8.120;2023-05-08T02:41:34;99685.16;;;15.33;58.75
8039;BME280;4062;49.844;8.120;2023-05-08T02:43:38;99686.03;;;15.34;58.97
8039;BME280;4062;49.844;8.120;2023-05-08T02:45:53;99686.03;;;15.34;58.91
8039;BME280;4062;49.844;8.120;2023-05-08T02:50:36;99686.03;;;15.34;58.83
8039;BME280;4062;49.844;8.120;2023-05-08T02:52:51;99689.56;;;15.34;58.91
8039;BME280;4062;49.844;8.120;2023-05-08T02:55:01;99691.38;;;15.34;58.95
8039;BME280;4062;49.844;8.120;2023-05-08T02:59:47;99690.47;;;15.33;58.76
8039;BME280;4062;49.844;8.120;2023-05-08T03:02:09;99691.38;;;15.34;58.92
8039;BME280;4062;49.844;8.120;2023-05-08T03:04:24;99686.03;;;15.34;58.82
8039;BME280;4062;49.844;8.120;2023-05-08T03:06:28;99683.38;;;15.34;58.89
8039;BME280;4062;49.844;8.120;2023-05-08T03:08:34;99691.38;;;15.34;58.95
8039;BME280;4062;49.844;8.120;2023-05-08T03:10:39;99680.72;;;15.34;58.90
8039;BME280;4062;49.844;8.120;2023-05-08T03:12:45;99686.03;;;15.34;58.82
8039;BME280;4062;49.844;8.120;2023-05-08T03:15:02;99684.25;;;15.34;58.79
8039;BME280;4062;49.844;8.120;2023-05-08T03:17:09;99680.72;;;15.34;58.93
8039;BME280;4062;49.844;8.120;2023-05-08T03:19:35;99686.03;;;15.34;59.05
8039;BME280;4062;49.844;8.120;2023-05-08T03:21:40;99684.25;;;15.34;58.83
8039;BME280;4062;49.844;8.120;2023-05-08T03:23:48;99685.16;;;15.33;59.02
8039;BME280;4062;49.844;8.120;2023-05-08T03:25:52;99691.38;;;15.34;58.76
8039;BME280;4062;49.844;8.120;2023-05-08T03:27:56;99689.56;;;15.34;58.88
8039;BME280;4062;49.844;8.120;2023-05-08T03:29:59;99692.22;;;15.34;58.96
8039;BME280;4062;49.844;8.120;2023-05-08T03:32:03;99692.22;;;15.34;58.97
8039;BME280;4062;49.844;8.120;2023-05-08T03:34:11;99696.69;;;15.34;58.83
8039;BME280;4062;49.844;8.120;2023-05-08T03:36:17;99699.34;;;15.34;58.96
8039;BME280;4062;49.844;8.120;2023-05-08T03:38:19;99697.53;;;15.34;58.79
8039;BME280;4062;49.844;8.120;2023-05-08T03:40:21;99696.69;;;15.34;58.73
8039;BME280;4062;49.844;8.120;2023-05-08T03:42:26;99696.69;;;15.34;58.82
8039;BME280;4062;49.844;8.120;2023-05-08T03:44:29;99699.34;;;15.34;58.90
8039;BME280;4062;49.844;8.120;2023-05-08T03:46:31;99694.03;;;15.34;58.91
8039;BME280;4062;49.844;8.120;2023-05-08T03:48:34;99694.97;;;15.32;58.91
8039;BME280;4062;49.844;8.120;2023-05-08T03:50:40;99699.34;;;15.34;58.88
8039;BME280;4062;49.844;8.120;2023-05-08T03:52:46;99696.69;;;15.34;58.82
8039;BME280;4062;49.844;8.120;2023-05-08T03:54:48;99695.81;;;15.33;58.78
8039;BME280;4062;49.844;8.120;2023-05-08T03:56:52;99701.13;;;15.33;58.88
8039;BME280;4062;49.844;8.120;2023-05-08T03:59:14;99702.03;;;15.34;58.85
8039;BME280;4062;49.844;8.120;2023-05-08T04:02:11;99710.00;;;15.34;58.90
8039;BME280;4062;49.844;8.120;2023-05-08T04:04:38;99702.03;;;15.34;58.78
8039;BME280;4062;49.844;8.120;2023-05-08T04:06:46;99702.03;;;15.34;58.78
8039;BME280;4062;49.844;8.120;2023-05-08T04:14:04;99707.34;;;15.34;58.83
8039;BME280;4062;49.844;8.120;2023-05-08T04:16:20;99700.28;;;15.32;58.77
8039;BME280;4062;49.844;8.120;2023-05-08T04:18:30;99699.34;;;15.34;58.72
8039;BME280;4062;49.844;8.120;2023-05-08T04:20:54;99706.47;;;15.33;58.85
8039;BME280;4062;49.844;8.120;2023-05-08T04:23:00;99701.13;;;15.33;58.95
8039;BME280;4062;49.844;8.120;2023-05-08T04:25:09;99701.13;;;15.33;58.90
8039;BME280;4062;49.844;8.120;2023-05-08T04:27:15;99696.69;;;15.34;58.81
8039;BME280;4062;49.844;8.120;2023-05-08T04:29:17;99706.47;;;15.33;58.68
8039;BME280;4062;49.844;8.120;2023-05-08T04:31:21;99704.69;;;15.34;58.82
8039;BME280;4062;49.844;8.120;2023-05-08T04:33:27;99706.47;;;15.33;58.93
8039;BME280;4062;49.844;8.120;2023-05-08T04:35:30;99707.34;;;15.34;58.91
8039;BME280;4062;49.844;8.120;2023-05-08T04:37:33;99704.69;;;15.34;58.98
8039;BME280;4062;49.844;8.120;2023-05-08T04:39:50;99702.03;;;15.34;58.81
8039;BME280;4062;49.844;8.120;2023-05-08T04:41:59;99704.69;;;15.34;58.89
8039;BME280;4062;49.844;8.120;2023-05-08T04:44:10;99694.97;;;15.32;58.72
8039;BME280;4062;49.844;8.120;2023-05-08T04:46:20;99700.28;;;15.32;58.72
8039;BME280;4062;49.844;8.120;2023-05-08T04:48:22;99703.78;;;15.33;58.90
8039;BME280;4062;49.844;8.120;2023-05-08T04:50:39;99706.47;;;15.33;58.78
8039;BME280;4062;49.844;8.120;2023-05-08T04:52:41;99713.59;;;15.32;58.89
8039;BME280;4062;49.844;8.120;2023-05-08T04:54:43;99715.34;;;15.34;58.89
8039;BME280;4062;49.844;8.120;2023-05-08T04:56:54;99718.84;;;15.34;58.83
8039;BME280;4062;49.844;8.120;2023-05-08T04:58:56;99718.00;;;15.34;58.91
8039;BME280;4062;49.844;8.120;2023-05-08T05:01:03;99720.66;;;15.34;58.84
8039;BME280;4062;49.844;8.120;2023-05-08T05:03:17;99733.97;;;15.34;58.81
8039;BME280;4062;49.844;8.120;2023-05-08T05:05:19;99733.09;;;15.33;58.92
8039;BME280;4062;49.844;8.120;2023-05-08T05:07:25;99731.31;;;15.34;58.78
8039;BME280;4062;49.844;8.120;2023-05-08T05:09:33;99741.94;;;15.34;58.91
8039;BME280;4062;49.844;8.120;2023-05-08T05:11:42;99735.75;;;15.33;58.88
8039;BME280;4062;49.844;8.120;2023-05-08T05:13:44;99743.72;;;15.33;58.90
8039;BME280;4062;49.844;8.120;2023-05-08T05:15:45;99747.28;;;15.34;58.79
8039;BME280;4062;49.844;8.120;2023-05-08T05:17:48;99747.28;;;15.34;58.90
8039;BME280;4062;49.844;8.120;2023-05-08T05:19:52;99752.59;;;15.34;58.79
8039;BME280;4062;49.844;8.120;2023-05-08T05:21:56;99750.78;;;15.34;58.92
8039;BME280;4062;49.844;8.120;2023-05-08T05:24:00;99751.69;;;15.35;58.82
8039;BME280;4062;49.844;8.120;2023-05-08T05:26:02;99751.72;;;15.33;58.92
8039;BME280;4062;49.844;8.120;2023-05-08T05:28:04;99751.72;;;15.33;58.82
8039;BME280;4062;49.844;8.120;2023-05-08T05:30:06;99761.44;;;15.34;58.94
8039;BME280;4062;49.844;8.120;2023-05-08T05:32:14;99765.91;;;15.34;58.96
8039;BME280;4062;49.844;8.120;2023-05-08T05:34:16;99765.91;;;15.34;58.86
8039;BME280;4062;49.844;8.120;2023-05-08T05:36:30;99769.44;;;15.34;58.91
8039;BME280;4062;49.844;8.120;2023-05-08T05:38:32;99769.44;;;15.34;58.95
8039;BME280;4062;49.844;8.120;2023-05-08T05:40:33;99775.69;;;15.33;58.79
8039;BME280;4062;49.844;8.120;2023-05-08T05:42:35;99776.56;;;15.34;58.90
8039;BME280;4062;49.844;8.120;2023-05-08T05:44:36;99773.00;;;15.33;58.83
8039;BME280;4062;49.844;8.120;2023-05-08T05:46:38;99775.63;;;15.35;58.87
8039;BME280;4062;49.844;8.120;2023-05-08T05:48:40;99781.00;;;15.33;58.95
8039;BME280;4062;49.844;8.120;2023-05-08T05:50:45;99776.56;;;15.34;58.93
8039;BME280;4062;49.844;8.120;2023-05-08T05:52:48;99783.66;;;15.33;58.98
8039;BME280;4062;49.844;8.120;2023-05-08T05:54:54;99781.88;;;15.34;58.91
8039;BME280;4062;49.844;8.120;2023-05-08T05:56:56;99783.63;;;15.35;58.95
8039;BME280;4062;49.844;8.120;2023-05-08T05:58:58;99785.41;;;15.34;58.83
8039;BME280;4062;49.844;8.120;2023-05-08T06:01:06;99784.56;;;15.34;58.83
8039;BME280;4062;49.844;8.120;2023-05-08T06:03:08;99786.28;;;15.35;58.81
8039;BME280;4062;49.844;8.120;2023-05-08T06:05:10;99783.66;;;15.33;58.97
8039;BME280;4062;49.844;8.120;2023-05-08T06:07:12;99784.56;;;15.34;58.77
8039;BME280;4062;49.844;8.120;2023-05-08T06:09:14;99786.31;;;15.33;58.79
8039;BME280;4062;49.844;8.120;2023-05-08T06:11:16;99784.56;;;15.34;58.79
8039;BME280;4062;49.844;8.120;2023-05-08T06:13:17;99796.06;;;15.34;58.96
8039;BME280;4062;49.844;8.120;2023-05-08T06:15:19;99789.88;;;15.34;58.79
8039;BME280;4062;49.844;8.120;2023-05-08T06:17:21;99792.53;;;15.34;58.78
8039;BME280;4062;49.844;8.120;2023-05-08T06:19:23;99789.00;;;15.33;59.01
8039;BME280;4062;49.844;8.120;2023-05-08T06:21:24;99791.66;;;15.33;58.76
8039;BME280;4062;49.844;8.120;2023-05-08T06:23:26;99791.66;;;15.33;58.86
8039;BME280;4062;49.844;8.120;2023-05-08T06:25:28;99796.06;;;15.34;58.76
8039;BME280;4062;49.844;8.120;2023-05-08T06:27:29;99792.53;;;15.34;58.91
8039;BME280;4062;49.844;8.120;2023-05-08T06:29:30;99792.53;;;15.34;58.85
8039;BME280;4062;49.844;8.120;2023-05-08T06:31:32;99796.06;;;15.34;59.00
8039;BME280;4062;49.844;8.120;2023-05-08T06:33:33;99789.00;;;15.33;58.92
8039;BME280;4062;49.844;8.120;2023-05-08T06:35:34;99793.38;;;15.34;58.91
8039;BME280;4062;49.844;8.120;2023-05-08T06:37:36;99792.53;;;15.34;58.93
8039;BME280;4062;49.844;8.120;2023-05-08T06:39:38;99789.88;;;15.34;58.89
8039;BME280;4062;49.844;8.120;2023-05-08T06:41:39;99792.53;;;15.34;58.82
8039;BME280;4062;49.844;8.120;2023-05-08T06:43:52;99787.22;;;15.34;58.81
8039;BME280;4062;49.844;8.120;2023-05-08T06:45:54;99792.53;;;15.34;58.88
8039;BME280;4062;49.844;8.120;2023-05-08T06:47:55;99788.06;;;15.34;58.81
8039;BME280;4062;49.844;8.120;2023-05-08T06:49:56;99785.41;;;15.34;58.89
8039;BME280;4062;49.844;8.120;2023-05-08T06:51:58;99791.66;;;15.33;58.81
8039;BME280;4062;49.844;8.120;2023-05-08T06:54:00;99789.00;;;15.33;58.81
8039;BME280;4062;49.844;8.120;2023-05-08T06:56:01;99788.06;;;15.34;58.81
8039;BME280;4062;49.844;8.120;2023-05-08T06:58:02;99788.94;;;15.35;58.91
8039;BME280;4062;49.844;8.120;2023-05-08T07:00:04;99788.94;;;15.35;58.91
8039;BME280;4062;49.844;8.120;2023-05-08T07:02:07;99793.38;;;15.34;58.85
8039;BME280;4062;49.844;8.120;2023-05-08T07:04:10;99785.41;;;15.34;58.83
8039;BME280;4062;49.844;8.120;2023-05-08T07:06:11;99789.00;;;15.33;58.96
8039;BME280;4062;49.844;8.120;2023-05-08T07:08:12;99791.66;;;15.33;58.86
8039;BME280;4062;49.844;8.120;2023-05-08T07:10:17;99793.38;;;15.34;58.71
8039;BME280;4062;49.844;8.120;2023-05-08T07:12:21;99790.78;;;15.32;58.73
8039;BME280;4062;49.844;8.120;2023-05-08T07:14:22;99789.88;;;15.34;58.76
8039;BME280;4062;49.844;8.120;2023-05-08T07:16:23;99786.31;;;15.33;58.93
8039;BME280;4062;49.844;8.120;2023-05-08T07:18:25;99788.94;;;15.35;58.91
8039;BME280;4062;49.844;8.120;2023-05-08T07:20:26;99789.88;;;15.34;58.97
8039;BME280;4062;49.844;8.120;2023-05-08T07:22:28;99789.00;;;15.33;58.75
8039;BME280;4062;49.844;8.120;2023-05-08T07:24:29;99789.88;;;15.34;58.92
8039;BME280;4062;49.844;8.120;2023-05-08T07:26:30;99793.47;;;15.32;58.79
8039;BME280;4062;49.844;8.120;2023-05-08T07:28:32;99796.06;;;15.34;58.90
8039;BME280;4062;49.844;8.120;2023-05-08T07:30:33;99796.94;;;15.35;58.91
8039;BME280;4062;49.844;8.120;2023-05-08T07:32:35;99797.84;;;15.34;58.68
8039;BME280;4062;49.844;8.120;2023-05-08T07:34:39;99792.53;;;15.34;58.86
8039;BME280;4062;49.844;8.120;2023-05-08T07:36:40;99792.53;;;15.34;58.96
8039;BME280;4062;49.844;8.120;2023-05-08T07:38:44;99800.53;;;15.34;58.95
8039;BME280;4062;49.844;8.120;2023-05-08T07:40:45;99798.72;;;15.34;58.76
8039;BME280;4062;49.844;8.120;2023-05-08T07:42:49;99808.50;;;15.34;58.95
8039;BME280;4062;49.844;8.120;2023-05-08T07:44:50;99798.78;;;15.32;58.91
8039;BME280;4062;49.844;8.120;2023-05-08T07:46:51;99800.53;;;15.34;58.75
8039;BME280;4062;49.844;8.120;2023-05-08T07:48:53;99803.19;;;15.34;58.88
8039;BME280;4062;49.844;8.120;2023-05-08T07:50:54;99799.59;;;15.35;58.82
8039;BME280;4062;49.844;8.120;2023-05-08T07:52:55;99805.78;;;15.35;58.80
8039;BME280;4062;49.844;8.120;2023-05-08T07:54:57;99803.19;;;15.34;58.78
8039;BME280;4062;49.844;8.120;2023-05-08T07:56:58;99805.84;;;15.34;58.79
8039;BME280;4062;49.844;8.120;2023-05-08T07:58:59;99804.94;;;15.35;58.82
8039;BME280;4062;49.844;8.120;2023-05-08T08:01:01;99806.69;;;15.34;58.85
8039;BME280;4062;49.844;8.120;2023-05-08T08:03:03;99811.16;;;15.34;58.77
8039;BME280;4062;49.844;8.120;2023-05-08T08:05:05;99808.50;;;15.34;58.91
8039;BME280;4062;49.844;8.120;2023-05-08T08:07:06;99810.25;;;15.35;58.91
8039;BME280;4062;49.844;8.120;2023-05-08T08:09:08;99803.19;;;15.34;58.72
8039;BME280;4062;49.844;8.120;2023-05-08T08:11:09;99809.38;;;15.34;58.87
8039;BME280;4062;49.844;8.120;2023-05-08T08:13:11;99809.38;;;15.34;58.76
8039;BME280;4062;49.844;8.120;2023-05-08T08:15:12;99802.25;;;15.35;58.85
8039;BME280;4062;49.844;8.120;2023-05-08T08:17:13;99810.25;;;15.35;58.88
8039;BME280;4062;49.844;8.120;2023-05-08T08:19:14;99808.50;;;15.34;58.95
8039;BME280;4062;49.844;8.120;2023-05-08T08:21:16;99817.34;;;15.34;58.84
8039;BME280;4062;49.844;8.120;2023-05-08T08:23:17;99818.25;;;15.35;58.82
8039;BME280;4062;49.844;8.120;2023-05-08T08:25:19;99812.03;;;15.34;58.77
8039;BME280;4062;49.844;8.120;2023-05-08T08:27:21;99818.25;;;15.35;58.74
8039;BME280;4062;49.844;8.120;2023-05-08T08:29:22;99820.91;;;15.35;58.70
8039;BME280;4062;49.844;8.120;2023-05-08T08:31:23;99825.34;;;15.34;58.79
8039;BME280;4062;49.844;8.120;2023-05-08T08:33:27;99823.56;;;15.35;58.88
8039;BME280;4062;49.844;8.120;2023-05-08T08:35:29;99826.22;;;15.35;58.79
8039;BME280;4062;49.844;8.120;2023-05-08T08:37:33;99820.00;;;15.34;58.88
8039;BME280;4062;49.844;8.120;2023-05-08T08:39:35;99819.16;;;15.34;58.76
8039;BME280;4062;49.844;8.120;2023-05-08T08:41:38;99817.31;;;15.36;58.83
8039;BME280;4062;49.844;8.120;2023-05-08T08:43:39;99818.25;;;15.35;58.85
8039;BME280;4062;49.844;8.120;2023-05-08T08:45:48;99814.69;;;15.34;58.92
8039;BME280;4062;49.844;8.120;2023-05-08T08:47:51;99814.69;;;15.34;58.89
8039;BME280;4062;49.844;8.120;2023-05-08T08:50:04;99814.69;;;15.34;58.79
8039;BME280;4062;49.844;8.120;2023-05-08T08:52:36;99820.91;;;15.35;58.79
8039;BME280;4062;49.844;8.120;2023-05-08T08:54:43;99820.91;;;15.35;58.77
8039;BME280;4062;49.844;8.120;2023-05-08T08:56:55;99820.91;;;15.35;58.79
8039;BME280;4062;49.844;8.120;2023-05-08T08:58:58;99820.00;;;15.34;58.77
8039;BME280;4062;49.844;8.120;2023-05-08T09:01:00;99828.00;;;15.34;58.77
8039;BME280;4062;49.844;8.120;2023-05-08T09:03:05;99828.88;;;15.35;58.75
8039;BME280;4062;49.844;8.120;2023-05-08T09:05:08;99831.56;;;15.35;58.78
8039;BME280;4062;49.844;8.120;2023-05-08T09:07:11;99836.00;;;15.34;58.78
8039;BME280;4062;49.844;8.120;2023-05-08T09:09:13;99836.00;;;15.34;58.84
8039;BME280;4062;49.844;8.120;2023-05-08T09:11:20;99841.31;;;15.34;58.74
8039;BME280;4062;49.844;8.120;2023-05-08T09:13:24;99836.88;;;15.35;58.85
8039;BME280;4062;49.844;8.120;2023-05-08T09:15:26;99838.66;;;15.34;58.78
8039;BME280;4062;49.844;8.120;2023-05-08T09:17:27;99839.53;;;15.35;58.74
8039;BME280;4062;49.844;8.120;2023-05-08T09:19:29;99831.56;;;15.35;58.76
8039;BME280;4062;49.844;8.120;2023-05-08T09:21:34;99842.19;;;15.35;58.82
8039;BME280;4062;49.844;8.120;2023-05-08T09:23:36;99836.88;;;15.35;58.90
8039;BME280;4062;49.844;8.120;2023-05-08T09:25:44;99841.31;;;15.34;58.77
8039;BME280;4062;49.844;8.120;2023-05-08T09:27:50;99847.53;;;15.35;58.91
8039;BME280;4062;49.844;8.120;2023-05-08T09:30:07;99842.19;;;15.35;59.01
8039;BME280;4062;49.844;8.120;2023-05-08T09:32:17;99847.53;;;15.35;58.94
8039;BME280;4062;49.844;8.120;2023-05-08T09:34:29;99849.28;;;15.34;58.95
8039;BME280;4062;49.844;8.120;2023-05-08T09:36:30;99838.66;;;15.34;58.74
8039;BME280;4062;49.844;8.120;2023-05-08T09:40:42;99851.97;;;15.34;58.92
8039;BME280;4062;49.844;8.120;2023-05-08T09:42:44;99849.28;;;15.34;58.85
8039;BME280;4062;49.844;8.120;2023-05-08T09:44:51;99855.50;;;15.35;58.82
8039;BME280;4062;49.844;8.120;2023-05-08T09:47:12;99862.56;;;15.36;58.95
8039;BME280;4062;49.844;8.120;2023-05-08T09:49:16;99863.50;;;15.35;58.88
8039;BME280;4062;49.844;8.120;2023-05-08T09:51:18;99864.34;;;15.35;59.04
8039;BME280;4062;49.844;8.120;2023-05-08T09:53:30;99861.75;;;15.34;58.79
8039;BME280;4062;49.844;8.120;2023-05-08T09:55:46;99860.84;;;15.35;58.78
8039;BME280;4062;49.844;8.120;2023-05-08T09:57:52;99854.63;;;15.34;58.70
8039;BME280;4062;49.844;8.120;2023-05-08T10:00:08;99859.94;;;15.34;58.96
8039;BME280;4062;49.844;8.120;2023-05-08T10:02:12;99856.38;;;15.35;58.89
8039;BME280;4062;49.844;8.120;2023-05-08T10:04:16;99859.03;;;15.35;58.88
8039;BME280;4062;49.844;8.120;2023-05-08T10:06:17;99856.38;;;15.35;58.70
8039;BME280;4062;49.844;8.120;2023-05-08T10:08:23;99859.03;;;15.35;58.77
8039;BME280;4062;49.844;8.120;2023-05-08T10:10:27;99855.50;;;15.35;58.88
8039;BME280;4062;49.844;8.120;2023-05-08T10:12:31;99855.50;;;15.35;58.87
8039;BME280;4062;49.844;8.120;2023-05-08T10:14:33;99856.38;;;15.35;58.78
8039;BME280;4062;49.844;8.120;2023-05-08T10:16:44;99863.50;;;15.35;58.83
8039;BME280;4062;49.844;8.120;2023-05-08T10:18:49;99856.38;;;15.35;58.82
8039;BME280;4062;49.844;8.120;2023-05-08T10:20:51;99856.38;;;15.35;58.76
8039;BME280;4062;49.844;8.120;2023-05-08T10:22:56;99857.25;;;15.36;58.87
8039;BME280;4062;49.844;8.120;2023-05-08T10:24:58;99853.69;;;15.35;58.78
8039;BME280;4062;49.844;8.120;2023-05-08T10:27:18;99851.03;;;15.35;58.77
8039;BME280;4062;49.844;8.120;2023-05-08T10:29:42;99851.03;;;15.35;58.81
8039;BME280;4062;49.844;8.120;2023-05-08T10:31:49;99841.31;;;15.34;58.71
8039;BME280;4062;49.844;8.120;2023-05-08T10:33:55;99851.03;;;15.35;58.95
8039;BME280;4062;49.844;8.120;2023-05-08T10:36:00;99858.16;;;15.35;58.75
8039;BME280;4062;49.844;8.120;2023-05-08T10:38:02;99856.38;;;15.35;58.78
8039;BME280;4062;49.844;8.120;2023-05-08T10:40:05;99853.69;;;15.35;58.85
8039;BME280;4062;49.844;8.120;2023-05-08T10:42:06;99851.03;;;15.35;58.87
8039;BME280;4062;49.844;8.120;2023-05-08T10:44:09;99844.84;;;15.35;58.81
8039;BME280;4062;49.844;8.120;2023-05-08T10:49:07;99839.53;;;15.35;58.77
8039;BME280;4062;49.844;8.120;2023-05-08T10:55:41;99840.38;;;15.35;58.81
8039;BME280;4062;49.844;8.120;2023-05-08T10:58:33;99835.94;;;15.36;58.74
8039;BME280;4062;49.844;8.120;2023-05-08T11:03:07;99840.38;;;15.35;58.76
8039;BME280;4062;49.844;8.120;2023-05-08T11:05:15;99843.06;;;15.35;58.73
8039;BME280;4062;49.844;8.120;2023-05-08T11:07:17;99841.28;;;15.36;58.92
8039;BME280;4062;49.844;8.120;2023-05-08T11:09:29;99835.06;;;15.35;58.69
8039;BME280;4062;49.844;8.120;2023-05-08T11:12:33;99835.06;;;15.35;58.89
8039;BME280;4062;49.844;8.120;2023-05-08T11:14:15;99837.72;;;15.35;58.70
8039;BME280;4062;49.844;8.120;2023-05-08T11:16:37;99832.41;;;15.35;58.77
8039;BME280;4062;49.844;8.120;2023-05-08T11:19:15;99831.56;;;15.35;58.76
8039;BME280;4062;49.844;8.120;2023-05-08T11:21:20;99837.72;;;15.35;58.78
8039;BME280;4062;49.844;8.120;2023-05-08T11:23:32;99829.75;;;15.35;58.87
8039;BME280;4062;49.844;8.120;2023-05-08T11:25:46;99827.97;;;15.36;58.75
8039;BME280;4062;49.844;8.120;2023-05-08T11:35:04;99822.63;;;15.36;58.87
8039;BME280;4062;49.844;8.120;2023-05-08T11:37:19;99817.31;;;15.36;58.87
8039;BME280;4062;49.844;8.120;2023-05-08T11:39:20;99817.31;;;15.36;58.86
8039;BME280;4062;49.844;8.120;2023-05-08T11:41:22;99823.50;;;15.36;58.88
8039;BME280;4062;49.844;8.120;2023-05-08T11:45:32;99822.63;;;15.36;58.89
8039;BME280;4062;49.844;8.120;2023-05-08T11:47:39;99822.56;;;15.37;58.96
8039;BME280;4062;49.844;8.120;2023-05-08T11:49:44;99824.34;;;15.37;58.96
8039;BME280;4062;49.844;8.120;2023-05-08T11:54:53;99819.97;;;15.36;58.88
8039;BME280;4062;49.844;8.120;2023-05-08T11:56:54;99817.31;;;15.36;58.93
8039;BME280;4062;49.844;8.120;2023-05-08T11:59:05;99823.50;;;15.36;58.96
8039;BME280;4062;49.844;8.120;2023-05-08T12:01:21;99822.63;;;15.36;58.71
8039;BME280;4062;49.844;8.120;2023-05-08T12:03:58;99817.31;;;15.36;58.81
8039;BME280;4062;49.844;8.120;2023-05-08T12:06:03;99827.00;;;15.37;58.86
8039;BME280;4062;49.844;8.120;2023-05-08T12:08:08;99821.69;;;15.37;58.83
8039;BME280;4062;49.844;8.120;2023-05-08T12:10:09;99819.03;;;15.37;58.75
8039;BME280;4062;49.844;8.120;2023-05-08T12:18:23;99819.03;;;15.37;58.84
8039;BME280;4062;49.844;8.120;2023-05-08T12:27:24;99821.69;;;15.37;58.76
8039;BME280;4062;49.844;8.120;2023-05-08T12:29:26;99816.38;;;15.37;58.83
8039;BME280;4062;49.844;8.120;2023-05-08T12:31:31;99818.09;;;15.38;58.75